createdAt,value
2022-12-19T00:01:34.672Z,8.95
2022-12-19T00:04:24.804Z,11.40
2022-12-19T00:07:15.016Z,15.70
2022-12-19T00:10:05.353Z,16.90
2022-12-19T00:12:55.291Z,15.93
2022-12-19T00:15:45.145Z,15.45
2022-12-19T00:18:35.568Z,15.70
2022-12-19T00:21:28.166Z,17.80
2022-12-19T00:24:21.428Z,16.65
2022-12-19T00:27:11.858Z,12.90
2022-12-19T00:30:01.986Z,13.45
2022-12-19T00:32:52.921Z,11.73
2022-12-19T00:35:43.792Z,14.60
2022-12-19T00:38:33.754Z,15.32
2022-12-19T00:41:27.215Z,10.40
2022-12-19T00:44:18.946Z,12.60
2022-12-19T00:47:09.467Z,10.88
2022-12-19T00:50:00.325Z,17.80
2022-12-19T00:52:50.048Z,17.17
2022-12-19T00:55:41.160Z,16.95
2022-12-19T00:58:35.324Z,37.55
2022-12-19T01:01:31.300Z,26.77
2022-12-19T01:04:29.539Z,29.05
2022-12-19T01:07:19.990Z,31.33
2022-12-19T01:10:10.642Z,30.10
2022-12-19T01:13:01.829Z,51.78
2022-12-19T01:15:52.052Z,44.67
2022-12-19T01:18:42.641Z,28.75
2022-12-19T01:21:32.541Z,29.83
2022-12-19T01:24:22.406Z,25.15
2022-12-19T01:27:13.205Z,26.75
2022-12-19T01:30:03.204Z,27.15
2022-12-19T01:32:54.687Z,39.78
2022-12-19T01:35:51.137Z,43.95
2022-12-19T01:38:41.041Z,36.22
2022-12-19T01:41:31.390Z,48.00
2022-12-19T01:44:21.097Z,31.90
2022-12-19T01:47:15.782Z,36.60
2022-12-19T01:50:06.896Z,26.23
2022-12-19T01:52:59.043Z,30.70
2022-12-19T01:55:48.947Z,18.15
2022-12-19T01:58:45.034Z,26.65
2022-12-19T02:01:41.460Z,21.80
2022-12-19T02:04:46.469Z,33.97
2022-12-19T02:07:21.573Z,44.25
2022-12-19T02:09:57.254Z,30.48
2022-12-19T02:12:42.573Z,26.77
2022-12-19T02:15:17.642Z,17.55
2022-12-19T02:17:52.745Z,37.25
2022-12-19T02:21:01.016Z,22.27
2022-12-19T02:23:32.955Z,44.38
2022-12-19T02:26:32.569Z,44.72
2022-12-19T02:29:40.252Z,32.78
2022-12-19T02:32:16.828Z,27.75
2022-12-19T02:35:04.524Z,34.97
2022-12-19T02:37:54.141Z,23.95
2022-12-19T02:40:42.595Z,32.13
2022-12-19T02:43:19.583Z,26.90
2022-12-19T02:45:52.437Z,14.75
2022-12-19T02:48:25.906Z,21.10
2022-12-19T02:50:58.835Z,46.22
2022-12-19T02:53:30.192Z,51.13
2022-12-19T02:56:33.169Z,51.50
2022-12-19T02:59:30.339Z,45.88
2022-12-19T03:02:28.041Z,20.20
2022-12-19T03:05:17.474Z,25.20
2022-12-19T03:07:59.676Z,37.42
2022-12-19T03:10:43.254Z,43.75
2022-12-19T03:13:23.780Z,33.47
2022-12-19T03:15:55.601Z,49.63
2022-12-19T03:18:28.295Z,19.95
2022-12-19T03:23:38.720Z,18.63
2022-12-19T03:26:17.193Z,28.88
2022-12-19T03:28:53.019Z,26.80
2022-12-19T03:31:29.748Z,22.75
2022-12-19T03:34:05.254Z,26.13
2022-12-19T03:36:43.647Z,15.77
2022-12-19T03:39:16.692Z,25.77
2022-12-19T03:42:08.023Z,11.80
2022-12-19T03:44:44.267Z,12.43
2022-12-19T03:47:22.624Z,10.80
2022-12-19T03:49:54.366Z,15.57
2022-12-19T03:52:45.556Z,18.98
2022-12-19T03:55:32.390Z,13.82
2022-12-19T03:58:11.483Z,20.17
2022-12-19T04:00:52.327Z,21.13
2022-12-19T04:03:25.274Z,15.57
2022-12-19T04:05:59.994Z,20.10
2022-12-19T04:08:34.058Z,15.57
2022-12-19T04:11:16.112Z,24.75
2022-12-19T04:13:55.193Z,19.17
2022-12-19T04:16:34.773Z,18.98
2022-12-19T04:19:20.432Z,14.45
2022-12-19T04:22:04.238Z,17.25
2022-12-19T04:24:39.613Z,14.50
2022-12-19T04:27:13.004Z,17.10
2022-12-19T04:29:45.466Z,16.17
2022-12-19T04:34:48.230Z,9.23
2022-12-19T04:37:19.875Z,16.70
2022-12-19T04:39:51.278Z,14.07
2022-12-19T04:42:23.436Z,17.23
2022-12-19T04:44:55.088Z,10.05
2022-12-19T04:47:26.474Z,17.02
2022-12-19T04:49:57.924Z,8.90
2022-12-19T04:52:29.284Z,6.90
2022-12-19T04:55:00.723Z,8.30
2022-12-19T04:57:33.174Z,13.88
2022-12-19T05:00:06.534Z,7.13
2022-12-19T05:02:39.809Z,12.98
2022-12-19T05:05:11.763Z,10.13
2022-12-19T05:07:43.236Z,10.55
2022-12-19T05:10:14.699Z,19.65
2022-12-19T05:12:46.143Z,10.25
2022-12-19T05:15:17.524Z,19.13
2022-12-19T05:17:48.841Z,41.13
2022-12-19T05:20:20.405Z,9.17
2022-12-19T05:22:51.744Z,15.13
2022-12-19T05:25:23.199Z,14.03
2022-12-19T05:27:54.585Z,13.38
2022-12-19T05:30:26.365Z,10.35
2022-12-19T05:32:57.806Z,15.23
2022-12-19T05:35:29.369Z,12.73
2022-12-19T05:38:00.692Z,7.90
2022-12-19T05:40:32.149Z,9.63
2022-12-19T05:43:03.632Z,9.00
2022-12-19T05:45:35.191Z,6.28
2022-12-19T05:48:07.182Z,11.18
2022-12-19T05:50:41.116Z,5.75
2022-12-19T05:53:15.445Z,5.68
2022-12-19T05:55:47.419Z,6.38
2022-12-19T06:00:54.852Z,7.68
2022-12-19T06:03:29.864Z,5.90
2022-12-19T06:06:08.515Z,5.33
2022-12-19T06:08:40.097Z,4.57
2022-12-19T06:11:12.886Z,5.63
2022-12-19T06:13:44.549Z,5.78
2022-12-19T06:16:18.492Z,3.90
2022-12-19T06:18:50.789Z,4.07
2022-12-19T06:21:25.047Z,4.93
2022-12-19T06:23:57.269Z,4.60
2022-12-19T06:26:28.987Z,3.80
2022-12-19T06:31:31.692Z,3.83
2022-12-19T06:34:04.013Z,4.03
2022-12-19T06:36:36.078Z,4.25
2022-12-19T06:39:07.385Z,4.10
2022-12-19T06:41:57.235Z,7.78
2022-12-19T06:44:29.061Z,4.13
2022-12-19T06:47:00.977Z,3.97
2022-12-19T06:49:32.322Z,3.73
2022-12-19T06:52:09.291Z,3.17
2022-12-19T06:54:41.034Z,11.15
2022-12-19T06:57:12.500Z,3.03
2022-12-19T06:59:43.945Z,3.43
2022-12-19T07:02:29.762Z,3.38
2022-12-19T07:05:07.585Z,3.53
2022-12-19T07:07:39.489Z,3.53
2022-12-19T07:10:11.624Z,3.53
2022-12-19T07:15:14.263Z,4.20
2022-12-19T07:20:17.988Z,3.25
2022-12-19T07:22:50.702Z,4.55
2022-12-19T07:25:22.334Z,3.20
2022-12-19T07:27:55.030Z,3.67
2022-12-19T07:30:26.530Z,2.83
2022-12-19T07:32:58.234Z,3.00
2022-12-19T07:35:29.727Z,3.27
2022-12-19T07:38:06.288Z,4.07
2022-12-19T07:40:38.366Z,4.63
2022-12-19T07:43:09.708Z,3.10
2022-12-19T07:45:41.279Z,3.30
2022-12-19T07:48:12.744Z,5.70
2022-12-19T07:50:44.255Z,3.13
2022-12-19T07:53:16.013Z,7.80
2022-12-19T07:55:47.512Z,3.13
2022-12-19T07:58:20.336Z,4.28
2022-12-19T08:00:59.439Z,3.63
2022-12-19T08:03:30.968Z,3.35
2022-12-19T08:06:04.543Z,5.57
2022-12-19T08:08:37.048Z,4.88
2022-12-19T08:11:14.567Z,2.90
2022-12-19T08:13:48.009Z,4.72
2022-12-19T08:16:19.669Z,7.00
2022-12-19T08:18:51.137Z,7.82
2022-12-19T08:21:23.369Z,8.73
2022-12-19T08:23:56.483Z,9.80
2022-12-19T08:26:31.237Z,8.47
2022-12-19T08:29:07.412Z,5.55
2022-12-19T08:31:40.018Z,9.85
2022-12-19T08:34:11.541Z,8.82
2022-12-19T08:36:43.036Z,11.45
2022-12-19T08:39:14.399Z,12.07
2022-12-19T08:41:46.258Z,14.43
2022-12-19T08:44:18.002Z,8.00
2022-12-19T08:46:50.525Z,9.13
2022-12-19T08:49:22.719Z,5.93
2022-12-19T08:51:54.239Z,9.45
2022-12-19T08:54:25.755Z,14.10
2022-12-19T08:56:57.110Z,11.75
2022-12-19T08:59:31.227Z,6.43
2022-12-19T09:02:05.126Z,23.35
2022-12-19T09:06:04.431Z,12.82
2022-12-19T09:07:30.491Z,18.13
2022-12-19T09:10:01.847Z,16.33
2022-12-19T09:12:33.259Z,18.88
2022-12-19T09:15:04.850Z,6.22
2022-12-19T09:17:36.408Z,18.48
2022-12-19T09:20:08.298Z,12.18
2022-12-19T09:25:10.882Z,12.75
2022-12-19T09:30:33.126Z,10.50
2022-12-19T09:33:07.388Z,14.75
2022-12-19T09:35:38.751Z,18.90
2022-12-19T09:38:11.208Z,9.27
2022-12-19T09:41:18.077Z,23.23
2022-12-19T09:44:14.819Z,8.75
2022-12-19T09:46:57.821Z,19.75
2022-12-19T09:49:41.629Z,21.02
2022-12-19T09:52:30.283Z,21.88
2022-12-19T09:55:30.637Z,10.10
2022-12-19T09:58:09.454Z,16.35
2022-12-19T10:01:00.890Z,19.15
2022-12-19T10:03:42.195Z,18.47
2022-12-19T10:07:11.538Z,15.03
2022-12-19T10:10:37.551Z,14.68
2022-12-19T10:12:52.327Z,26.30
2022-12-19T10:15:59.876Z,21.02
2022-12-19T10:18:44.434Z,17.98
2022-12-19T10:25:11.388Z,26.27
2022-12-19T10:27:58.466Z,34.67
2022-12-19T10:30:37.893Z,28.98
2022-12-19T10:33:21.510Z,16.70
2022-12-19T10:36:02.319Z,30.30
2022-12-19T10:38:59.224Z,13.00
2022-12-19T10:41:34.375Z,17.58
2022-12-19T10:44:16.118Z,14.02
2022-12-19T10:46:52.419Z,16.52
2022-12-19T10:49:27.452Z,18.90
2022-12-19T10:52:01.881Z,9.65
2022-12-19T10:54:39.114Z,14.48
2022-12-19T10:57:30.889Z,23.40
2022-12-19T11:00:05.530Z,9.60
2022-12-19T11:02:45.410Z,14.57
2022-12-19T11:05:29.889Z,14.02
2022-12-19T11:08:10.214Z,15.20
2022-12-19T11:11:45.296Z,16.27
2022-12-19T11:19:13.522Z,15.13
2022-12-19T11:21:51.308Z,16.80
2022-12-19T11:29:18.342Z,15.18
2022-12-19T11:29:32.821Z,15.52
2022-12-19T11:29:41.737Z,11.48
2022-12-19T11:30:35.949Z,17.48
2022-12-19T11:34:26.596Z,11.65
2022-12-19T11:37:20.663Z,15.93
2022-12-19T11:39:56.297Z,19.38
2022-12-19T11:42:55.508Z,20.73
2022-12-19T11:46:01.292Z,15.75
2022-12-19T11:48:39.019Z,20.02
2022-12-19T11:51:35.925Z,16.63
2022-12-19T11:54:38.439Z,21.67
2022-12-19T11:59:45.262Z,18.92
2022-12-19T12:05:39.273Z,14.35
2022-12-19T12:10:00.162Z,17.52
2022-12-19T12:18:56.766Z,19.92
2022-12-19T12:24:48.052Z,26.70
2022-12-19T12:31:09.471Z,17.27
2022-12-19T12:31:12.119Z,21.67
2022-12-19T12:31:46.923Z,9.77
2022-12-19T12:32:04.342Z,9.93
2022-12-19T12:35:42.531Z,9.85
2022-12-19T12:38:27.668Z,11.25
2022-12-19T12:41:45.660Z,8.88
2022-12-19T12:44:18.140Z,21.00
2022-12-19T12:47:30.504Z,13.65
2022-12-19T12:50:15.171Z,17.58
2022-12-19T12:52:51.460Z,15.80
2022-12-19T12:55:36.722Z,14.10
2022-12-19T12:58:28.573Z,13.60
2022-12-19T13:01:19.860Z,17.02
2022-12-19T13:04:13.285Z,9.70
2022-12-19T13:07:05.539Z,15.93
2022-12-19T13:09:38.613Z,8.50
2022-12-19T13:12:45.546Z,14.02
2022-12-19T13:15:29.359Z,10.23
2022-12-19T13:18:27.739Z,13.10
2022-12-19T13:21:00.944Z,9.90
2022-12-19T13:23:32.362Z,9.40
2022-12-19T13:26:04.949Z,16.55
2022-12-19T13:28:36.383Z,14.45
2022-12-19T13:31:20.949Z,9.05
2022-12-19T13:33:56.563Z,9.57
2022-12-19T13:39:51.848Z,22.67
2022-12-19T13:40:09.075Z,19.30
2022-12-19T13:43:19.898Z,7.82
2022-12-19T13:45:58.162Z,18.88
2022-12-19T13:48:33.883Z,19.10
2022-12-19T13:51:10.843Z,17.35
2022-12-19T13:53:44.201Z,9.73
2022-12-19T13:56:22.184Z,20.40
2022-12-19T13:59:03.192Z,18.60
2022-12-19T14:01:37.687Z,15.52
2022-12-19T14:04:30.636Z,22.55
2022-12-19T14:11:28.084Z,16.90
2022-12-19T14:13:59.226Z,18.55
2022-12-19T14:15:53.173Z,24.63
2022-12-19T14:18:45.065Z,21.90
2022-12-19T14:22:04.748Z,15.23
2022-12-19T14:24:24.979Z,14.60
2022-12-19T14:28:25.369Z,14.25
2022-12-19T14:30:28.860Z,13.40
2022-12-19T14:33:47.424Z,11.43
2022-12-19T14:36:10.558Z,25.77
2022-12-19T14:42:04.597Z,8.07
2022-12-19T14:52:50.856Z,14.00
2022-12-19T14:53:34.254Z,23.88
2022-12-19T14:54:27.812Z,17.33
2022-12-19T14:54:30.698Z,11.20
2022-12-19T14:56:46.735Z,5.07
2022-12-19T14:59:43.722Z,14.07
2022-12-19T15:02:32.423Z,9.50
2022-12-19T15:05:08.850Z,7.90
2022-12-19T15:07:46.476Z,11.45
2022-12-19T15:11:03.471Z,12.63
2022-12-19T15:14:51.085Z,14.98
2022-12-19T15:16:33.377Z,8.02
2022-12-19T15:19:07.596Z,9.10
2022-12-19T15:21:39.087Z,4.95
2022-12-19T15:24:11.184Z,4.30
2022-12-19T15:29:22.257Z,5.32
2022-12-19T15:31:53.913Z,8.20
2022-12-19T15:34:41.656Z,4.47
2022-12-19T15:39:49.608Z,6.03
2022-12-19T15:42:26.648Z,4.40
2022-12-19T15:45:01.382Z,5.18
2022-12-19T15:47:38.257Z,6.30
2022-12-19T15:50:27.577Z,6.70
2022-12-19T15:53:01.487Z,4.88
2022-12-19T15:55:33.178Z,5.20
2022-12-19T15:58:08.285Z,11.10
2022-12-19T16:00:40.815Z,5.82
2022-12-19T16:03:25.111Z,6.13
2022-12-19T16:05:58.117Z,5.07
2022-12-19T16:08:29.747Z,7.38
2022-12-19T16:11:02.145Z,9.68
2022-12-19T16:13:36.697Z,4.63
2022-12-19T16:16:15.456Z,16.13
2022-12-19T16:18:48.882Z,12.13
2022-12-19T16:21:33.583Z,14.30
2022-12-19T16:24:05.777Z,13.13
2022-12-19T16:26:39.679Z,12.63
2022-12-19T16:29:27.414Z,11.25
2022-12-19T16:31:59.312Z,7.63
2022-12-19T16:34:31.059Z,9.80
2022-12-19T16:37:02.796Z,5.85
2022-12-19T16:39:34.127Z,14.25
2022-12-19T16:42:13.865Z,4.40
2022-12-19T16:44:50.049Z,4.57
2022-12-19T16:47:21.464Z,6.40
2022-12-19T16:49:53.039Z,5.63
2022-12-19T16:52:24.391Z,6.40
2022-12-19T16:54:58.464Z,4.97
2022-12-19T16:57:29.830Z,3.90
2022-12-19T17:00:01.382Z,4.53
2022-12-19T17:03:00.358Z,5.15
2022-12-19T17:05:34.168Z,4.28
2022-12-19T17:08:12.944Z,4.63
2022-12-19T17:10:47.767Z,7.50
2022-12-19T17:13:19.599Z,4.07
2022-12-19T17:15:56.750Z,4.75
2022-12-19T17:18:36.007Z,6.18
2022-12-19T17:21:07.454Z,4.07
2022-12-19T17:23:38.956Z,3.80
2022-12-19T17:26:15.834Z,3.88
2022-12-19T17:28:49.576Z,4.45
2022-12-19T17:31:30.732Z,4.82
2022-12-19T17:34:02.109Z,4.30
2022-12-19T17:36:37.510Z,5.57
2022-12-19T17:39:29.700Z,5.65
2022-12-19T17:42:21.940Z,4.80
2022-12-19T17:47:24.817Z,5.70
2022-12-19T17:49:56.132Z,5.78
2022-12-19T17:52:27.665Z,6.67
2022-12-19T17:54:59.339Z,6.32
2022-12-19T17:57:30.681Z,5.40
2022-12-19T18:00:01.977Z,5.13
2022-12-19T18:02:43.964Z,5.65
2022-12-19T18:07:58.019Z,5.93
2022-12-19T18:10:32.352Z,7.05
2022-12-19T18:13:03.799Z,6.47
2022-12-19T18:15:35.350Z,5.97
2022-12-19T18:18:06.800Z,4.97
2022-12-19T18:20:38.214Z,5.95
2022-12-19T18:23:18.772Z,5.68
2022-12-19T18:25:53.628Z,6.40
2022-12-19T18:28:28.961Z,6.88
2022-12-19T18:31:12.523Z,5.73
2022-12-19T18:33:47.109Z,5.28
2022-12-19T18:36:27.538Z,5.45
2022-12-19T18:38:59.304Z,5.70
2022-12-19T18:41:30.786Z,7.38
2022-12-19T18:44:02.514Z,5.38
2022-12-19T18:46:35.021Z,6.50
2022-12-19T18:49:07.956Z,6.53
2022-12-19T18:51:39.408Z,8.80
2022-12-19T18:54:19.961Z,11.50
2022-12-19T18:56:51.500Z,6.28
2022-12-19T18:59:22.933Z,4.90
2022-12-19T19:01:54.489Z,5.95
2022-12-19T19:04:26.052Z,6.95
2022-12-19T19:06:57.828Z,7.97
2022-12-19T19:09:29.175Z,6.17
2022-12-19T19:12:24.535Z,5.72
2022-12-19T19:14:55.821Z,6.30
2022-12-19T19:17:31.995Z,5.90
2022-12-19T19:20:04.573Z,5.20
2022-12-19T19:22:36.317Z,5.40
2022-12-19T19:25:08.255Z,6.25
2022-12-19T19:27:41.361Z,5.43
2022-12-19T19:30:14.198Z,5.60
2022-12-19T19:33:10.073Z,5.70
2022-12-19T19:35:41.741Z,5.90
2022-12-19T19:38:14.683Z,9.43
2022-12-19T19:40:46.301Z,6.43
2022-12-19T19:43:18.097Z,7.90
2022-12-19T19:45:49.703Z,12.75
2022-12-19T19:50:52.324Z,8.40
2022-12-19T19:53:23.972Z,6.68
2022-12-19T19:56:01.091Z,6.63
2022-12-19T19:58:32.784Z,6.20
2022-12-19T20:01:14.149Z,5.55
2022-12-19T20:03:46.165Z,6.00
2022-12-19T20:06:18.034Z,7.95
2022-12-19T20:08:49.767Z,6.55
2022-12-19T20:11:22.191Z,5.77
2022-12-19T20:13:53.553Z,5.40
2022-12-19T20:16:25.011Z,6.50
2022-12-19T20:18:56.977Z,5.47
2022-12-19T20:21:28.658Z,6.30
2022-12-19T20:23:59.982Z,6.35
2022-12-19T20:26:31.333Z,6.33
2022-12-19T20:29:02.953Z,5.80
2022-12-19T20:31:35.451Z,5.38
2022-12-19T20:34:07.279Z,7.05
2022-12-19T20:36:39.052Z,5.25
2022-12-19T20:39:11.023Z,5.27
2022-12-19T20:41:42.479Z,6.35
2022-12-19T20:44:16.428Z,5.68
2022-12-19T20:46:52.074Z,6.28
2022-12-19T20:49:25.128Z,6.38
2022-12-19T20:51:56.565Z,6.63
2022-12-19T20:54:28.331Z,5.70
2022-12-19T20:56:59.760Z,5.78
2022-12-19T20:59:31.080Z,5.30
2022-12-19T21:02:04.134Z,5.50
2022-12-19T21:04:35.949Z,5.40
2022-12-19T21:09:38.712Z,5.07
2022-12-19T21:12:10.426Z,6.53
2022-12-19T21:14:41.891Z,8.70
2022-12-19T21:17:13.459Z,6.15
2022-12-19T21:19:44.962Z,8.37
2022-12-19T21:22:16.713Z,6.20
2022-12-19T21:24:48.243Z,5.67
2022-12-19T21:27:19.614Z,5.75
2022-12-19T21:29:51.236Z,6.00
2022-12-19T21:32:23.038Z,6.40
2022-12-19T21:34:57.304Z,8.50
2022-12-19T21:37:28.903Z,6.10
2022-12-19T21:40:00.666Z,5.65
2022-12-19T21:42:32.095Z,5.57
2022-12-19T21:45:03.450Z,7.27
2022-12-19T21:47:34.835Z,5.37
2022-12-19T21:50:07.380Z,5.68
2022-12-19T21:52:39.605Z,9.68
2022-12-19T21:55:11.779Z,6.45
2022-12-19T21:57:44.095Z,6.68
2022-12-19T22:00:15.915Z,7.22
2022-12-19T22:03:12.187Z,6.47
2022-12-19T22:05:41.394Z,10.25
2022-12-19T22:08:13.387Z,8.07
2022-12-19T22:13:17.819Z,11.27
2022-12-19T22:15:49.250Z,6.80
2022-12-19T22:18:21.307Z,7.10
2022-12-19T22:20:52.572Z,7.57
2022-12-19T22:23:24.106Z,10.52
2022-12-19T22:26:15.586Z,7.53
2022-12-19T22:28:49.646Z,7.50
2022-12-19T22:31:25.569Z,9.30
2022-12-19T22:34:02.873Z,7.63
2022-12-19T22:36:37.241Z,7.15
2022-12-19T22:39:12.110Z,8.10
2022-12-19T22:41:44.057Z,8.90
2022-12-19T22:44:21.500Z,8.07
2022-12-19T22:46:54.066Z,9.32
2022-12-19T22:49:25.458Z,9.05
2022-12-19T22:51:56.794Z,8.43
2022-12-19T22:54:28.157Z,8.47
2022-12-19T22:56:59.475Z,9.93
2022-12-19T22:59:30.880Z,8.37
2022-12-19T23:02:02.395Z,8.87
2022-12-19T23:04:33.980Z,8.38
2022-12-19T23:07:05.448Z,6.83
2022-12-19T23:09:36.996Z,9.43
2022-12-19T23:12:08.933Z,6.93
2022-12-19T23:14:40.312Z,11.83
2022-12-19T23:17:11.898Z,8.43
2022-12-19T23:19:43.787Z,8.75
2022-12-19T23:22:15.348Z,7.70
2022-12-19T23:24:47.166Z,8.70
2022-12-19T23:27:18.541Z,10.57
2022-12-19T23:29:51.378Z,15.43
2022-12-19T23:32:22.884Z,8.57
2022-12-19T23:34:54.295Z,11.73
2022-12-19T23:37:25.695Z,14.10
2022-12-19T23:39:57.168Z,8.97
2022-12-19T23:42:28.638Z,34.17
2022-12-19T23:45:00.251Z,52.38
2022-12-19T23:47:31.539Z,40.53
2022-12-19T23:50:02.892Z,24.35
2022-12-19T23:52:34.220Z,33.50
2022-12-19T23:55:05.705Z,31.73
2022-12-19T23:57:37.240Z,49.70
